sensor_id;sensor_type;location;lat;lon;timestamp;P1;durP1;ratioP1;P2;durP2;ratioP2
72601;SDS011;60644;55.858;37.390;2022-08-30T00:00:49;15.15;;;6.70;;
72601;SDS011;60644;55.858;37.390;2022-08-30T00:03:34;13.93;;;6.30;;
72601;SDS011;60644;55.858;37.390;2022-08-30T00:06:03;14.83;;;7.30;;
72601;SDS011;60644;55.858;37.390;2022-08-30T00:08:31;16.75;;;6.80;;
72601;SDS011;60644;55.858;37.390;2022-08-30T00:10:58;14.40;;;6.22;;
72601;SDS011;60644;55.858;37.390;2022-08-30T00:13:24;12.93;;;6.55;;
72601;SDS011;60644;55.858;37.390;2022-08-30T00:15:50;13.77;;;6.47;;
72601;SDS011;60644;55.858;37.390;2022-08-30T00:18:17;15.73;;;5.85;;
72601;SDS011;60644;55.858;37.390;2022-08-30T00:20:46;12.60;;;6.18;;
72601;SDS011;60644;55.858;37.390;2022-08-30T00:23:14;15.90;;;6.35;;
72601;SDS011;60644;55.858;37.390;2022-08-30T00:25:41;14.50;;;5.93;;
72601;SDS011;60644;55.858;37.390;2022-08-30T00:28:07;14.53;;;6.27;;
72601;SDS011;60644;55.858;37.390;2022-08-30T00:30:34;16.23;;;6.43;;
72601;SDS011;60644;55.858;37.390;2022-08-30T00:33:01;16.65;;;6.47;;
72601;SDS011;60644;55.858;37.390;2022-08-30T00:35:26;13.25;;;6.03;;
72601;SDS011;60644;55.858;37.390;2022-08-30T00:37:53;13.82;;;6.00;;
72601;SDS011;60644;55.858;37.390;2022-08-30T00:40:19;15.30;;;5.80;;
72601;SDS011;60644;55.858;37.390;2022-08-30T00:42:46;18.48;;;6.95;;
72601;SDS011;60644;55.858;37.390;2022-08-30T00:45:23;13.32;;;6.22;;
72601;SDS011;60644;55.858;37.390;2022-08-30T00:47:52;12.80;;;6.10;;
72601;SDS011;60644;55.858;37.390;2022-08-30T00:50:20;13.93;;;6.40;;
72601;SDS011;60644;55.858;37.390;2022-08-30T00:52:50;15.73;;;6.40;;
72601;SDS011;60644;55.858;37.390;2022-08-30T00:55:20;17.30;;;6.28;;
72601;SDS011;60644;55.858;37.390;2022-08-30T00:57:47;15.30;;;6.38;;
72601;SDS011;60644;55.858;37.390;2022-08-30T01:00:18;15.82;;;6.68;;
72601;SDS011;60644;55.858;37.390;2022-08-30T01:02:44;13.83;;;5.97;;
72601;SDS011;60644;55.858;37.390;2022-08-30T01:05:11;16.50;;;6.22;;
72601;SDS011;60644;55.858;37.390;2022-08-30T01:07:38;12.55;;;6.18;;
72601;SDS011;60644;55.858;37.390;2022-08-30T01:10:05;17.83;;;6.80;;
72601;SDS011;60644;55.858;37.390;2022-08-30T01:12:37;13.60;;;6.43;;
72601;SDS011;60644;55.858;37.390;2022-08-30T01:15:04;14.80;;;6.07;;
72601;SDS011;60644;55.858;37.390;2022-08-30T01:17:31;13.85;;;6.05;;
72601;SDS011;60644;55.858;37.390;2022-08-30T01:20:00;18.42;;;7.18;;
72601;SDS011;60644;55.858;37.390;2022-08-30T01:23:16;13.77;;;6.18;;
72601;SDS011;60644;55.858;37.390;2022-08-30T01:25:24;17.63;;;6.25;;
72601;SDS011;60644;55.858;37.390;2022-08-30T01:27:56;15.57;;;6.60;;
72601;SDS011;60644;55.858;37.390;2022-08-30T01:30:26;17.40;;;6.97;;
72601;SDS011;60644;55.858;37.390;2022-08-30T01:32:56;16.50;;;6.47;;
72601;SDS011;60644;55.858;37.390;2022-08-30T01:35:28;16.15;;;6.72;;
72601;SDS011;60644;55.858;37.390;2022-08-30T01:37:57;13.27;;;6.15;;
72601;SDS011;60644;55.858;37.390;2022-08-30T01:40:23;14.00;;;7.17;;
72601;SDS011;60644;55.858;37.390;2022-08-30T01:42:49;14.02;;;6.25;;
72601;SDS011;60644;55.858;37.390;2022-08-30T01:45:15;16.10;;;6.60;;
72601;SDS011;60644;55.858;37.390;2022-08-30T01:47:41;15.18;;;6.82;;
72601;SDS011;60644;55.858;37.390;2022-08-30T01:50:07;15.30;;;6.53;;
72601;SDS011;60644;55.858;37.390;2022-08-30T01:52:35;19.45;;;6.70;;
72601;SDS011;60644;55.858;37.390;2022-08-30T01:55:01;17.63;;;6.90;;
72601;SDS011;60644;55.858;37.390;2022-08-30T01:57:28;14.80;;;7.30;;
72601;SDS011;60644;55.858;37.390;2022-08-30T01:59:54;12.30;;;6.60;;
72601;SDS011;60644;55.858;37.390;2022-08-30T02:02:24;18.92;;;6.28;;
72601;SDS011;60644;55.858;37.390;2022-08-30T02:04:53;16.00;;;7.03;;
72601;SDS011;60644;55.858;37.390;2022-08-30T02:07:20;17.20;;;6.60;;
72601;SDS011;60644;55.858;37.390;2022-08-30T02:09:48;13.93;;;6.72;;
72601;SDS011;60644;55.858;37.390;2022-08-30T02:12:15;16.70;;;7.13;;
72601;SDS011;60644;55.858;37.390;2022-08-30T02:14:42;16.73;;;6.00;;
72601;SDS011;60644;55.858;37.390;2022-08-30T02:17:09;16.05;;;6.13;;
72601;SDS011;60644;55.858;37.390;2022-08-30T02:19:37;15.73;;;6.10;;
72601;SDS011;60644;55.858;37.390;2022-08-30T02:22:05;13.48;;;6.20;;
72601;SDS011;60644;55.858;37.390;2022-08-30T02:24:32;13.10;;;6.53;;
72601;SDS011;60644;55.858;37.390;2022-08-30T02:26:57;15.82;;;6.25;;
72601;SDS011;60644;55.858;37.390;2022-08-30T02:29:24;16.27;;;7.43;;
72601;SDS011;60644;55.858;37.390;2022-08-30T02:31:50;17.27;;;6.43;;
72601;SDS011;60644;55.858;37.390;2022-08-30T02:34:16;16.40;;;6.40;;
72601;SDS011;60644;55.858;37.390;2022-08-30T02:36:42;15.20;;;6.63;;
72601;SDS011;60644;55.858;37.390;2022-08-30T02:39:09;13.43;;;6.25;;
72601;SDS011;60644;55.858;37.390;2022-08-30T02:41:36;15.68;;;7.07;;
72601;SDS011;60644;55.858;37.390;2022-08-30T02:44:05;17.20;;;7.57;;
72601;SDS011;60644;55.858;37.390;2022-08-30T02:46:33;13.75;;;6.68;;
72601;SDS011;60644;55.858;37.390;2022-08-30T02:48:59;15.10;;;7.33;;
72601;SDS011;60644;55.858;37.390;2022-08-30T02:51:25;16.58;;;6.88;;
72601;SDS011;60644;55.858;37.390;2022-08-30T02:53:51;12.40;;;6.47;;
72601;SDS011;60644;55.858;37.390;2022-08-30T02:56:17;16.53;;;7.03;;
72601;SDS011;60644;55.858;37.390;2022-08-30T02:58:43;15.73;;;6.55;;
72601;SDS011;60644;55.858;37.390;2022-08-30T03:01:10;15.82;;;7.22;;
72601;SDS011;60644;55.858;37.390;2022-08-30T03:03:38;16.52;;;7.80;;
72601;SDS011;60644;55.858;37.390;2022-08-30T03:06:05;16.10;;;7.32;;
72601;SDS011;60644;55.858;37.390;2022-08-30T03:08:31;16.13;;;6.77;;
72601;SDS011;60644;55.858;37.390;2022-08-30T03:10:59;17.30;;;7.50;;
72601;SDS011;60644;55.858;37.390;2022-08-30T03:13:25;14.48;;;7.32;;
72601;SDS011;60644;55.858;37.390;2022-08-30T03:15:51;15.88;;;7.53;;
72601;SDS011;60644;55.858;37.390;2022-08-30T03:18:17;18.60;;;7.30;;
72601;SDS011;60644;55.858;37.390;2022-08-30T03:20:44;15.07;;;7.95;;
72601;SDS011;60644;55.858;37.390;2022-08-30T03:23:10;16.65;;;7.63;;
72601;SDS011;60644;55.858;37.390;2022-08-30T03:25:36;17.42;;;8.30;;
72601;SDS011;60644;55.858;37.390;2022-08-30T03:28:03;18.70;;;7.70;;
72601;SDS011;60644;55.858;37.390;2022-08-30T03:30:30;17.55;;;8.55;;
72601;SDS011;60644;55.858;37.390;2022-08-30T03:32:56;16.27;;;7.78;;
72601;SDS011;60644;55.858;37.390;2022-08-30T03:35:22;15.85;;;7.78;;
72601;SDS011;60644;55.858;37.390;2022-08-30T03:37:48;21.97;;;9.60;;
72601;SDS011;60644;55.858;37.390;2022-08-30T03:40:15;15.43;;;7.65;;
72601;SDS011;60644;55.858;37.390;2022-08-30T03:42:44;14.75;;;8.25;;
72601;SDS011;60644;55.858;37.390;2022-08-30T03:45:11;17.55;;;8.07;;
72601;SDS011;60644;55.858;37.390;2022-08-30T03:47:38;16.35;;;7.13;;
72601;SDS011;60644;55.858;37.390;2022-08-30T03:50:04;18.53;;;7.30;;
72601;SDS011;60644;55.858;37.390;2022-08-30T03:52:31;14.25;;;7.78;;
72601;SDS011;60644;55.858;37.390;2022-08-30T03:54:57;13.38;;;7.38;;
72601;SDS011;60644;55.858;37.390;2022-08-30T03:57:25;18.38;;;8.25;;
72601;SDS011;60644;55.858;37.390;2022-08-30T03:59:51;16.27;;;7.40;;
72601;SDS011;60644;55.858;37.390;2022-08-30T04:02:18;14.20;;;7.57;;
72601;SDS011;60644;55.858;37.390;2022-08-30T04:04:45;14.05;;;7.95;;
72601;SDS011;60644;55.858;37.390;2022-08-30T04:07:11;15.68;;;8.00;;
72601;SDS011;60644;55.858;37.390;2022-08-30T04:09:37;18.88;;;8.15;;
72601;SDS011;60644;55.858;37.390;2022-08-30T04:12:03;16.80;;;8.23;;
72601;SDS011;60644;55.858;37.390;2022-08-30T04:14:30;17.73;;;7.85;;
72601;SDS011;60644;55.858;37.390;2022-08-30T04:16:55;17.60;;;8.82;;
72601;SDS011;60644;55.858;37.390;2022-08-30T04:19:22;15.50;;;8.25;;
72601;SDS011;60644;55.858;37.390;2022-08-30T04:21:48;18.33;;;8.17;;
72601;SDS011;60644;55.858;37.390;2022-08-30T04:24:14;16.90;;;7.80;;
72601;SDS011;60644;55.858;37.390;2022-08-30T04:26:40;16.73;;;8.55;;
72601;SDS011;60644;55.858;37.390;2022-08-30T04:29:06;18.63;;;8.40;;
72601;SDS011;60644;55.858;37.390;2022-08-30T04:31:32;17.00;;;8.10;;
72601;SDS011;60644;55.858;37.390;2022-08-30T04:33:58;17.85;;;9.23;;
72601;SDS011;60644;55.858;37.390;2022-08-30T04:36:24;15.13;;;8.45;;
72601;SDS011;60644;55.858;37.390;2022-08-30T04:38:50;17.23;;;8.87;;
72601;SDS011;60644;55.858;37.390;2022-08-30T04:41:16;17.55;;;8.85;;
72601;SDS011;60644;55.858;37.390;2022-08-30T04:43:44;19.17;;;9.43;;
72601;SDS011;60644;55.858;37.390;2022-08-30T04:46:11;14.77;;;9.13;;
72601;SDS011;60644;55.858;37.390;2022-08-30T04:48:38;18.33;;;9.30;;
72601;SDS011;60644;55.858;37.390;2022-08-30T04:51:08;15.70;;;8.90;;
72601;SDS011;60644;55.858;37.390;2022-08-30T04:53:37;15.77;;;9.55;;
72601;SDS011;60644;55.858;37.390;2022-08-30T04:56:07;16.77;;;9.70;;
72601;SDS011;60644;55.858;37.390;2022-08-30T04:58:41;16.45;;;9.77;;
72601;SDS011;60644;55.858;37.390;2022-08-30T05:01:15;15.85;;;10.32;;
72601;SDS011;60644;55.858;37.390;2022-08-30T05:03:43;16.97;;;9.97;;
72601;SDS011;60644;55.858;37.390;2022-08-30T05:06:11;16.75;;;9.90;;
72601;SDS011;60644;55.858;37.390;2022-08-30T05:08:37;20.10;;;9.45;;
72601;SDS011;60644;55.858;37.390;2022-08-30T05:11:04;15.98;;;9.93;;
72601;SDS011;60644;55.858;37.390;2022-08-30T05:13:32;20.63;;;10.20;;
72601;SDS011;60644;55.858;37.390;2022-08-30T05:15:58;20.08;;;10.15;;
72601;SDS011;60644;55.858;37.390;2022-08-30T05:18:25;18.10;;;10.02;;
72601;SDS011;60644;55.858;37.390;2022-08-30T05:21:08;19.80;;;10.35;;
72601;SDS011;60644;55.858;37.390;2022-08-30T05:23:36;19.00;;;10.60;;
72601;SDS011;60644;55.858;37.390;2022-08-30T05:26:08;17.37;;;10.17;;
72601;SDS011;60644;55.858;37.390;2022-08-30T05:28:39;19.00;;;10.20;;
72601;SDS011;60644;55.858;37.390;2022-08-30T05:31:12;20.20;;;11.27;;
72601;SDS011;60644;55.858;37.390;2022-08-30T05:33:39;18.92;;;10.48;;
72601;SDS011;60644;55.858;37.390;2022-08-30T05:36:06;18.40;;;10.63;;
72601;SDS011;60644;55.858;37.390;2022-08-30T05:38:32;21.07;;;10.73;;
72601;SDS011;60644;55.858;37.390;2022-08-30T05:40:58;20.58;;;11.45;;
72601;SDS011;60644;55.858;37.390;2022-08-30T05:43:24;22.65;;;12.55;;
72601;SDS011;60644;55.858;37.390;2022-08-30T05:46:00;17.83;;;11.10;;
72601;SDS011;60644;55.858;37.390;2022-08-30T05:48:37;19.60;;;10.68;;
72601;SDS011;60644;55.858;37.390;2022-08-30T05:51:11;19.48;;;10.77;;
72601;SDS011;60644;55.858;37.390;2022-08-30T05:53:39;18.83;;;11.45;;
72601;SDS011;60644;55.858;37.390;2022-08-30T05:56:07;19.60;;;11.52;;
72601;SDS011;60644;55.858;37.390;2022-08-30T05:58:35;20.57;;;11.27;;
72601;SDS011;60644;55.858;37.390;2022-08-30T06:01:01;19.50;;;11.20;;
72601;SDS011;60644;55.858;37.390;2022-08-30T06:03:28;20.98;;;10.95;;
72601;SDS011;60644;55.858;37.390;2022-08-30T06:05:57;20.02;;;10.93;;
72601;SDS011;60644;55.858;37.390;2022-08-30T06:08:24;19.80;;;11.40;;
72601;SDS011;60644;55.858;37.390;2022-08-30T06:10:50;18.90;;;11.10;;
72601;SDS011;60644;55.858;37.390;2022-08-30T06:13:19;20.60;;;11.57;;
72601;SDS011;60644;55.858;37.390;2022-08-30T06:15:45;18.33;;;12.02;;
72601;SDS011;60644;55.858;37.390;2022-08-30T06:18:11;17.35;;;11.25;;
72601;SDS011;60644;55.858;37.390;2022-08-30T06:20:41;20.48;;;13.57;;
72601;SDS011;60644;55.858;37.390;2022-08-30T06:23:09;19.37;;;11.97;;
72601;SDS011;60644;55.858;37.390;2022-08-30T06:25:38;19.10;;;11.82;;
72601;SDS011;60644;55.858;37.390;2022-08-30T06:28:04;20.42;;;11.98;;
72601;SDS011;60644;55.858;37.390;2022-08-30T06:30:31;18.75;;;12.23;;
72601;SDS011;60644;55.858;37.390;2022-08-30T06:32:58;19.40;;;11.73;;
72601;SDS011;60644;55.858;37.390;2022-08-30T06:35:24;21.73;;;11.97;;
72601;SDS011;60644;55.858;37.390;2022-08-30T06:37:51;22.33;;;11.55;;
72601;SDS011;60644;55.858;37.390;2022-08-30T06:40:17;17.00;;;11.45;;
72601;SDS011;60644;55.858;37.390;2022-08-30T06:42:46;17.80;;;11.68;;
72601;SDS011;60644;55.858;37.390;2022-08-30T06:45:12;19.53;;;11.90;;
72601;SDS011;60644;55.858;37.390;2022-08-30T06:47:39;15.90;;;11.07;;
72601;SDS011;60644;55.858;37.390;2022-08-30T06:50:05;20.55;;;11.30;;
72601;SDS011;60644;55.858;37.390;2022-08-30T06:52:32;19.60;;;11.70;;
72601;SDS011;60644;55.858;37.390;2022-08-30T06:54:58;19.70;;;12.00;;
72601;SDS011;60644;55.858;37.390;2022-08-30T06:57:24;17.55;;;11.55;;
72601;SDS011;60644;55.858;37.390;2022-08-30T06:59:54;17.58;;;11.13;;
72601;SDS011;60644;55.858;37.390;2022-08-30T07:02:24;15.90;;;11.23;;
72601;SDS011;60644;55.858;37.390;2022-08-30T07:04:50;16.88;;;11.75;;
72601;SDS011;60644;55.858;37.390;2022-08-30T07:07:16;14.37;;;10.63;;
72601;SDS011;60644;55.858;37.390;2022-08-30T07:09:42;18.05;;;11.57;;
72601;SDS011;60644;55.858;37.390;2022-08-30T07:12:09;14.68;;;11.30;;
72601;SDS011;60644;55.858;37.390;2022-08-30T07:14:35;17.63;;;11.30;;
72601;SDS011;60644;55.858;37.390;2022-08-30T07:17:01;19.85;;;11.00;;
72601;SDS011;60644;55.858;37.390;2022-08-30T07:19:47;17.98;;;10.85;;
72601;SDS011;60644;55.858;37.390;2022-08-30T07:22:14;17.63;;;11.30;;
72601;SDS011;60644;55.858;37.390;2022-08-30T07:24:43;19.52;;;11.18;;
72601;SDS011;60644;55.858;37.390;2022-08-30T07:27:11;16.27;;;10.87;;
72601;SDS011;60644;55.858;37.390;2022-08-30T07:29:37;17.88;;;11.00;;
72601;SDS011;60644;55.858;37.390;2022-08-30T07:32:03;16.75;;;11.85;;
72601;SDS011;60644;55.858;37.390;2022-08-30T07:34:29;18.23;;;10.90;;
72601;SDS011;60644;55.858;37.390;2022-08-30T07:36:55;17.77;;;10.87;;
72601;SDS011;60644;55.858;37.390;2022-08-30T07:39:21;17.25;;;11.57;;
72601;SDS011;60644;55.858;37.390;2022-08-30T07:41:47;17.23;;;10.40;;
72601;SDS011;60644;55.858;37.390;2022-08-30T07:44:13;17.80;;;11.30;;
72601;SDS011;60644;55.858;37.390;2022-08-30T07:46:39;21.08;;;11.65;;
72601;SDS011;60644;55.858;37.390;2022-08-30T07:49:06;19.38;;;12.10;;
72601;SDS011;60644;55.858;37.390;2022-08-30T07:51:34;18.20;;;12.10;;
72601;SDS011;60644;55.858;37.390;2022-08-30T07:54:00;18.03;;;11.90;;
72601;SDS011;60644;55.858;37.390;2022-08-30T07:56:26;19.30;;;11.65;;
72601;SDS011;60644;55.858;37.390;2022-08-30T07:58:52;20.73;;;11.82;;
72601;SDS011;60644;55.858;37.390;2022-08-30T08:01:19;18.13;;;12.55;;
72601;SDS011;60644;55.858;37.390;2022-08-30T08:03:47;19.67;;;11.57;;
72601;SDS011;60644;55.858;37.390;2022-08-30T08:06:17;18.40;;;12.20;;
72601;SDS011;60644;55.858;37.390;2022-08-30T08:08:44;15.45;;;11.55;;
72601;SDS011;60644;55.858;37.390;2022-08-30T08:11:18;18.27;;;11.63;;
72601;SDS011;60644;55.858;37.390;2022-08-30T08:13:52;19.35;;;12.20;;
72601;SDS011;60644;55.858;37.390;2022-08-30T08:16:18;17.25;;;11.52;;
72601;SDS011;60644;55.858;37.390;2022-08-30T08:18:46;16.10;;;11.30;;
72601;SDS011;60644;55.858;37.390;2022-08-30T08:21:12;19.95;;;12.63;;
72601;SDS011;60644;55.858;37.390;2022-08-30T08:23:38;16.90;;;11.13;;
72601;SDS011;60644;55.858;37.390;2022-08-30T08:26:04;19.73;;;11.50;;
72601;SDS011;60644;55.858;37.390;2022-08-30T08:28:30;16.87;;;11.30;;
72601;SDS011;60644;55.858;37.390;2022-08-30T08:30:56;19.98;;;11.65;;
72601;SDS011;60644;55.858;37.390;2022-08-30T08:33:25;18.73;;;11.70;;
72601;SDS011;60644;55.858;37.390;2022-08-30T08:35:51;19.58;;;11.98;;
72601;SDS011;60644;55.858;37.390;2022-08-30T08:38:26;18.67;;;12.80;;
72601;SDS011;60644;55.858;37.390;2022-08-30T08:43:35;21.67;;;13.43;;
72601;SDS011;60644;55.858;37.390;2022-08-30T08:46:08;18.98;;;11.77;;
72601;SDS011;60644;55.858;37.390;2022-08-30T08:48:44;18.23;;;12.23;;
72601;SDS011;60644;55.858;37.390;2022-08-30T08:51:17;15.93;;;11.00;;
72601;SDS011;60644;55.858;37.390;2022-08-30T08:54:12;18.73;;;12.02;;
72601;SDS011;60644;55.858;37.390;2022-08-30T08:56:43;15.88;;;10.68;;
72601;SDS011;60644;55.858;37.390;2022-08-30T08:59:09;16.23;;;10.55;;
72601;SDS011;60644;55.858;37.390;2022-08-30T09:01:36;17.98;;;10.90;;
72601;SDS011;60644;55.858;37.390;2022-08-30T09:04:36;17.77;;;10.77;;
72601;SDS011;60644;55.858;37.390;2022-08-30T09:07:02;15.20;;;10.77;;
72601;SDS011;60644;55.858;37.390;2022-08-30T09:09:33;14.75;;;11.13;;
72601;SDS011;60644;55.858;37.390;2022-08-30T09:12:01;16.67;;;11.05;;
72601;SDS011;60644;55.858;37.390;2022-08-30T09:14:34;16.67;;;11.35;;
72601;SDS011;60644;55.858;37.390;2022-08-30T09:17:04;18.27;;;11.20;;
72601;SDS011;60644;55.858;37.390;2022-08-30T09:19:34;17.75;;;10.75;;
72601;SDS011;60644;55.858;37.390;2022-08-30T09:24:41;14.82;;;10.02;;
72601;SDS011;60644;55.858;37.390;2022-08-30T09:29:54;16.20;;;9.97;;
72601;SDS011;60644;55.858;37.390;2022-08-30T09:32:40;18.00;;;9.70;;
72601;SDS011;60644;55.858;37.390;2022-08-30T09:35:09;15.98;;;9.95;;
72601;SDS011;60644;55.858;37.390;2022-08-30T09:37:45;15.20;;;9.50;;
72601;SDS011;60644;55.858;37.390;2022-08-30T09:40:24;12.82;;;8.85;;
72601;SDS011;60644;55.858;37.390;2022-08-30T09:43:01;14.30;;;9.03;;
72601;SDS011;60644;55.858;37.390;2022-08-30T09:45:31;15.60;;;9.13;;
72601;SDS011;60644;55.858;37.390;2022-08-30T09:48:00;16.48;;;8.95;;
72601;SDS011;60644;55.858;37.390;2022-08-30T09:50:45;15.02;;;9.38;;
72601;SDS011;60644;55.858;37.390;2022-08-30T09:53:17;16.58;;;9.40;;
72601;SDS011;60644;55.858;37.390;2022-08-30T10:01:29;15.23;;;9.15;;
72601;SDS011;60644;55.858;37.390;2022-08-30T10:06:45;15.33;;;8.60;;
72601;SDS011;60644;55.858;37.390;2022-08-30T10:14:49;12.98;;;7.95;;
72601;SDS011;60644;55.858;37.390;2022-08-30T10:17:40;17.08;;;8.88;;
72601;SDS011;60644;55.858;37.390;2022-08-30T10:25:32;13.93;;;8.80;;
72601;SDS011;60644;55.858;37.390;2022-08-30T10:30:32;15.20;;;9.85;;
72601;SDS011;60644;55.858;37.390;2022-08-30T10:35:46;14.45;;;8.68;;
72601;SDS011;60644;55.858;37.390;2022-08-30T10:38:39;16.35;;;9.25;;
72601;SDS011;60644;55.858;37.390;2022-08-30T10:43:59;15.00;;;9.88;;
72601;SDS011;60644;55.858;37.390;2022-08-30T10:46:32;15.07;;;9.60;;
72601;SDS011;60644;55.858;37.390;2022-08-30T10:49:16;15.68;;;9.48;;
72601;SDS011;60644;55.858;37.390;2022-08-30T10:54:25;14.60;;;8.57;;
72601;SDS011;60644;55.858;37.390;2022-08-30T10:56:59;16.38;;;9.02;;
72601;SDS011;60644;55.858;37.390;2022-08-30T10:59:25;16.13;;;10.17;;
72601;SDS011;60644;55.858;37.390;2022-08-30T11:10:54;17.80;;;11.98;;
72601;SDS011;60644;55.858;37.390;2022-08-30T11:13:25;15.27;;;11.50;;
72601;SDS011;60644;55.858;37.390;2022-08-30T11:16:02;18.25;;;11.55;;
72601;SDS011;60644;55.858;37.390;2022-08-30T11:18:29;17.77;;;11.40;;
72601;SDS011;60644;55.858;37.390;2022-08-30T11:42:47;22.80;;;11.77;;
72601;SDS011;60644;55.858;37.390;2022-08-30T11:55:36;17.55;;;11.80;;
72601;SDS011;60644;55.858;37.390;2022-08-30T11:58:21;20.30;;;12.98;;
72601;SDS011;60644;55.858;37.390;2022-08-30T12:01:15;18.20;;;12.20;;
72601;SDS011;60644;55.858;37.390;2022-08-30T12:03:41;18.40;;;11.65;;
72601;SDS011;60644;55.858;37.390;2022-08-30T12:06:09;16.03;;;10.77;;
72601;SDS011;60644;55.858;37.390;2022-08-30T12:08:56;16.88;;;11.02;;
72601;SDS011;60644;55.858;37.390;2022-08-30T12:18:59;16.10;;;9.43;;
72601;SDS011;60644;55.858;37.390;2022-08-30T12:21:39;15.45;;;10.07;;
72601;SDS011;60644;55.858;37.390;2022-08-30T12:26:43;15.48;;;11.23;;
72601;SDS011;60644;55.858;37.390;2022-08-30T12:37:28;14.47;;;10.13;;
72601;SDS011;60644;55.858;37.390;2022-08-30T12:40:09;14.10;;;9.32;;
72601;SDS011;60644;55.858;37.390;2022-08-30T12:42:37;15.80;;;10.90;;
72601;SDS011;60644;55.858;37.390;2022-08-30T12:45:14;17.70;;;11.20;;
72601;SDS011;60644;55.858;37.390;2022-08-30T12:47:45;17.33;;;11.48;;
72601;SDS011;60644;55.858;37.390;2022-08-30T12:50:25;14.93;;;10.50;;
72601;SDS011;60644;55.858;37.390;2022-08-30T12:53:04;15.85;;;9.98;;
72601;SDS011;60644;55.858;37.390;2022-08-30T12:55:35;15.75;;;10.50;;
72601;SDS011;60644;55.858;37.390;2022-08-30T12:58:15;14.07;;;9.02;;
72601;SDS011;60644;55.858;37.390;2022-08-30T13:00:42;15.75;;;8.88;;
72601;SDS011;60644;55.858;37.390;2022-08-30T13:03:31;14.13;;;7.77;;
72601;SDS011;60644;55.858;37.390;2022-08-30T13:06:01;16.65;;;9.00;;
72601;SDS011;60644;55.858;37.390;2022-08-30T13:11:11;16.50;;;8.75;;
72601;SDS011;60644;55.858;37.390;2022-08-30T13:13:50;22.38;;;8.68;;
72601;SDS011;60644;55.858;37.390;2022-08-30T13:16:33;18.93;;;8.87;;
72601;SDS011;60644;55.858;37.390;2022-08-30T13:19:19;13.80;;;9.13;;
72601;SDS011;60644;55.858;37.390;2022-08-30T13:24:54;16.73;;;9.45;;
72601;SDS011;60644;55.858;37.390;2022-08-30T13:27:21;14.52;;;9.80;;
72601;SDS011;60644;55.858;37.390;2022-08-30T13:33:32;13.70;;;9.90;;
72601;SDS011;60644;55.858;37.390;2022-08-30T13:39:43;17.98;;;10.55;;
72601;SDS011;60644;55.858;37.390;2022-08-30T13:42:28;16.25;;;10.45;;
72601;SDS011;60644;55.858;37.390;2022-08-30T13:44:54;20.17;;;10.23;;
72601;SDS011;60644;55.858;37.390;2022-08-30T13:47:20;14.32;;;8.93;;
72601;SDS011;60644;55.858;37.390;2022-08-30T13:49:46;14.52;;;9.23;;
72601;SDS011;60644;55.858;37.390;2022-08-30T13:52:13;14.73;;;9.10;;
72601;SDS011;60644;55.858;37.390;2022-08-30T13:54:41;16.33;;;10.18;;
72601;SDS011;60644;55.858;37.390;2022-08-30T13:57:07;14.98;;;9.30;;
72601;SDS011;60644;55.858;37.390;2022-08-30T13:59:33;14.60;;;9.40;;
72601;SDS011;60644;55.858;37.390;2022-08-30T14:01:59;16.50;;;9.27;;
72601;SDS011;60644;55.858;37.390;2022-08-30T14:04:26;17.38;;;9.50;;
72601;SDS011;60644;55.858;37.390;2022-08-30T14:06:52;14.13;;;9.13;;
72601;SDS011;60644;55.858;37.390;2022-08-30T14:09:18;16.33;;;9.40;;
72601;SDS011;60644;55.858;37.390;2022-08-30T14:11:44;17.88;;;8.98;;
72601;SDS011;60644;55.858;37.390;2022-08-30T14:14:10;19.08;;;9.35;;
72601;SDS011;60644;55.858;37.390;2022-08-30T14:16:38;15.23;;;9.38;;
72601;SDS011;60644;55.858;37.390;2022-08-30T14:19:06;16.40;;;9.38;;
72601;SDS011;60644;55.858;37.390;2022-08-30T14:21:33;15.63;;;9.63;;
72601;SDS011;60644;55.858;37.390;2022-08-30T14:24:00;17.83;;;8.70;;
72601;SDS011;60644;55.858;37.390;2022-08-30T14:26:30;19.05;;;8.18;;
72601;SDS011;60644;55.858;37.390;2022-08-30T14:28:58;14.95;;;8.57;;
72601;SDS011;60644;55.858;37.390;2022-08-30T14:31:25;16.60;;;9.55;;
72601;SDS011;60644;55.858;37.390;2022-08-30T14:33:51;16.03;;;9.80;;
72601;SDS011;60644;55.858;37.390;2022-08-30T14:36:17;15.73;;;9.40;;
72601;SDS011;60644;55.858;37.390;2022-08-30T14:38:43;14.60;;;9.43;;
72601;SDS011;60644;55.858;37.390;2022-08-30T14:41:09;14.83;;;8.73;;
72601;SDS011;60644;55.858;37.390;2022-08-30T14:43:35;13.77;;;9.05;;
72601;SDS011;60644;55.858;37.390;2022-08-30T14:46:03;16.92;;;8.82;;
72601;SDS011;60644;55.858;37.390;2022-08-30T14:48:30;17.15;;;9.23;;
72601;SDS011;60644;55.858;37.390;2022-08-30T14:50:56;14.97;;;9.27;;
72601;SDS011;60644;55.858;37.390;2022-08-30T14:53:22;17.27;;;9.50;;
72601;SDS011;60644;55.858;37.390;2022-08-30T14:55:48;16.63;;;9.43;;
72601;SDS011;60644;55.858;37.390;2022-08-30T14:58:14;14.90;;;9.55;;
72601;SDS011;60644;55.858;37.390;2022-08-30T15:00:47;16.47;;;9.53;;
72601;SDS011;60644;55.858;37.390;2022-08-30T15:03:14;18.23;;;9.57;;
72601;SDS011;60644;55.858;37.390;2022-08-30T15:05:40;14.52;;;9.35;;
72601;SDS011;60644;55.858;37.390;2022-08-30T15:08:06;16.42;;;9.85;;
72601;SDS011;60644;55.858;37.390;2022-08-30T15:10:32;16.73;;;10.17;;
72601;SDS011;60644;55.858;37.390;2022-08-30T15:12:58;17.08;;;10.30;;
72601;SDS011;60644;55.858;37.390;2022-08-30T15:15:23;16.73;;;9.67;;
72601;SDS011;60644;55.858;37.390;2022-08-30T15:17:49;17.67;;;10.60;;
72601;SDS011;60644;55.858;37.390;2022-08-30T15:20:15;15.45;;;9.98;;
72601;SDS011;60644;55.858;37.390;2022-08-30T15:22:45;17.27;;;9.75;;
72601;SDS011;60644;55.858;37.390;2022-08-30T15:25:11;16.03;;;8.27;;
72601;SDS011;60644;55.858;37.390;2022-08-30T15:27:37;13.50;;;5.45;;
72601;SDS011;60644;55.858;37.390;2022-08-30T15:30:04;15.20;;;5.20;;
72601;SDS011;60644;55.858;37.390;2022-08-30T15:32:30;11.95;;;4.40;;
72601;SDS011;60644;55.858;37.390;2022-08-30T15:34:56;14.93;;;5.10;;
72601;SDS011;60644;55.858;37.390;2022-08-30T15:37:24;19.08;;;5.60;;
72601;SDS011;60644;55.858;37.390;2022-08-30T15:39:50;13.63;;;4.75;;
72601;SDS011;60644;55.858;37.390;2022-08-30T15:42:17;14.50;;;4.47;;
72601;SDS011;60644;55.858;37.390;2022-08-30T15:44:53;11.13;;;4.45;;
72601;SDS011;60644;55.858;37.390;2022-08-30T15:47:20;11.50;;;4.83;;
72601;SDS011;60644;55.858;37.390;2022-08-30T15:49:54;14.18;;;4.45;;
72601;SDS011;60644;55.858;37.390;2022-08-30T15:52:22;12.05;;;4.13;;
72601;SDS011;60644;55.858;37.390;2022-08-30T15:54:48;17.45;;;4.47;;
72601;SDS011;60644;55.858;37.390;2022-08-30T15:57:14;12.98;;;4.72;;
72601;SDS011;60644;55.858;37.390;2022-08-30T15:59:40;15.27;;;4.60;;
72601;SDS011;60644;55.858;37.390;2022-08-30T16:02:06;10.75;;;4.20;;
72601;SDS011;60644;55.858;37.390;2022-08-30T16:04:33;13.93;;;4.70;;
72601;SDS011;60644;55.858;37.390;2022-08-30T16:06:59;14.00;;;4.10;;
72601;SDS011;60644;55.858;37.390;2022-08-30T16:09:25;16.07;;;4.50;;
72601;SDS011;60644;55.858;37.390;2022-08-30T16:11:51;16.75;;;4.55;;
72601;SDS011;60644;55.858;37.390;2022-08-30T16:14:17;12.40;;;4.60;;
72601;SDS011;60644;55.858;37.390;2022-08-30T16:16:43;12.57;;;4.53;;